Time;durP1;ratioP1;P1;durP2;ratioP2;P2;SDS_P1;SDS_P2;PMS_P1;PMS_P2;Temp;Humidity;BMP_temperature;BMP_pressure;BME280_temperature;BME280_humidity;BME280_pressure;Samples;Min_cycle;Max_cycle;Signal;HPM_P1;HPM_P2
2022/06/17 00:00:48;;;;;;;5.40;3.00;;;;;;;15.07;100.00;99924.53;4362070;32;34691;-77
2022/06/17 00:03:35;;;;;;;5.20;2.90;;;;;;;15.42;100.00;99923.47;4372512;32;34771;-78
2022/06/17 00:06:23;;;;;;;4.28;2.62;;;;;;;15.96;100.00;99920.75;4360648;32;34670;-78
2022/06/17 00:09:12;;;;;;;6.37;2.95;;;;;;;15.01;100.00;99936.09;4371492;32;34687;-78
2022/06/17 00:11:58;;;;;;;6.97;2.97;;;;;;;15.22;100.00;99925.87;4360163;32;34570;-78
2022/06/17 00:17:53;;;;;;;6.10;3.47;;;;;;;14.71;100.00;99927.78;4372251;32;34256;-77
2022/06/17 00:20:40;;;;;;;7.57;3.40;;;;;;;15.41;100.00;99924.63;4359423;32;35962;-78
2022/06/17 00:23:27;;;;;;;5.82;3.00;;;;;;;15.49;100.00;99916.28;4357543;32;35252;-78
2022/06/17 00:26:14;;;;;;;5.62;2.95;;;;;;;15.01;100.00;99927.81;4371137;32;34855;-78
2022/06/17 00:29:00;;;;;;;5.20;3.45;;;;;;;15.71;100.00;99931.75;4357483;32;34296;-78
2022/06/17 00:31:47;;;;;;;5.87;3.40;;;;;;;15.50;100.00;99926.16;4360564;32;34927;-78
2022/06/17 00:34:33;;;;;;;5.85;3.22;;;;;;;15.73;100.00;99925.84;4357467;32;34599;-78
2022/06/17 00:37:19;;;;;;;5.47;2.90;;;;;;;15.48;100.00;99938.69;4357018;32;34988;-77
2022/06/17 00:40:12;;;;;;;6.32;3.20;;;;;;;15.01;100.00;99947.13;4372106;32;34255;-78
2022/06/17 00:43:02;;;;;;;8.60;3.40;;;;;;;14.80;100.00;99942.38;4372223;32;36025;-78
2022/06/17 00:46:10;;;;;;;4.47;3.28;;;;;;;15.00;100.00;99949.09;4360482;32;33433;-78
2022/06/17 00:49:20;;;;;;;5.95;3.40;;;;;;;14.97;100.00;99924.94;4360690;32;34305;-78
2022/06/17 00:52:15;;;;;;;6.47;3.53;;;;;;;15.52;100.00;99917.56;4356809;32;34562;-78
2022/06/17 00:55:10;;;;;;;7.15;3.30;;;;;;;15.38;100.00;99922.53;4356442;32;34944;-78
2022/06/17 00:58:00;;;;;;;4.82;2.92;;;;;;;14.91;100.00;99917.16;4359362;32;34546;-78
2022/06/17 01:00:48;;;;;;;3.10;2.55;;;;;;;15.84;100.00;99917.97;4359323;32;35106;-78
2022/06/17 01:03:36;;;;;;;3.75;2.60;;;;;;;15.81;100.00;99918.66;4372191;32;35384;-78
2022/06/17 01:06:30;;;;;;;6.40;3.53;;;;;;;14.94;100.00;99913.72;4371858;32;36009;-78
2022/06/17 01:13:01;;;;;;;4.72;3.20;;;;;;;14.33;100.00;99917.53;4365094;32;34054;-77
2022/06/17 01:15:48;;;;;;;7.55;3.45;;;;;;;14.75;100.00;99928.75;4360189;32;34138;-77
2022/06/17 01:18:37;;;;;;;7.87;3.37;;;;;;;14.83;100.00;99927.13;4370966;32;35063;-78
2022/06/17 01:21:32;;;;;;;5.90;3.30;;;;;;;14.54;100.00;99927.88;4359576;32;34424;-78
2022/06/17 01:24:19;;;;;;;7.40;3.40;;;;;;;14.61;100.00;99930.94;4359601;32;35123;-77
2022/06/17 01:27:06;;;;;;;6.85;3.28;;;;;;;14.56;100.00;99928.34;4371705;32;34300;-77
2022/06/17 01:29:53;;;;;;;6.47;3.40;;;;;;;14.57;100.00;99933.56;4348330;32;35102;-77
2022/06/17 01:32:47;;;;;;;6.12;3.28;;;;;;;14.66;100.00;99930.75;4356792;32;35447;-77
2022/06/17 01:35:40;;;;;;;6.47;3.70;;;;;;;14.38;100.00;99936.66;4359671;32;33885;-77
2022/06/17 01:38:28;;;;;;;9.75;4.00;;;;;;;14.51;100.00;99951.38;4340991;33;34089;-78
2022/06/17 01:41:15;;;;;;;9.02;3.97;;;;;;;14.61;100.00;99951.03;4340654;33;34889;-76
2022/06/17 01:44:12;;;;;;;7.60;4.18;;;;;;;14.40;100.00;99950.94;4340684;33;34867;-77
2022/06/17 01:47:00;;;;;;;10.35;6.15;;;;;;;14.58;100.00;99948.16;4340572;33;34730;-77
2022/06/17 01:49:50;;;;;;;7.40;4.40;;;;;;;14.40;100.00;99959.19;4340613;33;34648;-77
2022/06/17 01:52:44;;;;;;;9.25;4.45;;;;;;;14.31;100.00;99955.63;4341542;33;35034;-77
2022/06/17 01:55:41;;;;;;;10.18;4.35;;;;;;;14.50;100.00;99962.72;4340281;33;34418;-76
2022/06/17 01:58:40;;;;;;;7.32;4.78;;;;;;;14.29;100.00;99966.19;4340169;33;34386;-76
2022/06/17 02:01:29;;;;;;;9.57;5.70;;;;;;;14.17;100.00;99964.13;4338640;33;34627;-75
2022/06/17 02:04:21;;;;;;;11.60;5.55;;;;;;;13.97;100.00;99963.97;4338015;33;35440;-76
2022/06/17 02:07:22;;;;;;;10.47;6.57;;;;;;;14.07;100.00;99969.97;4341219;33;35471;-76
2022/06/17 02:10:08;;;;;;;;;;;;;;;13.90;100.00;99958.97;4341633;33;35104;-76
2022/06/17 02:12:55;;;;;;;12.23;6.70;;;;;;;13.77;100.00;99966.25;4340547;33;35676;-76
2022/06/17 02:15:43;;;;;;;14.82;7.00;;;;;;;13.78;100.00;99967.88;4342226;33;35551;-75
2022/06/17 02:18:30;;;;;;;11.77;7.22;;;;;;;13.75;100.00;99968.53;4342093;33;34560;-76
2022/06/17 02:21:25;;;;;;;10.18;6.15;;;;;;;13.92;100.00;99971.28;4343321;33;34367;-77
2022/06/17 02:24:12;;;;;;;11.40;5.37;;;;;;;14.10;100.00;99954.72;4342296;33;35955;-76
2022/06/17 02:27:00;;;;;;;11.05;6.72;;;;;;;14.06;100.00;99956.50;4342077;33;35708;-76
2022/06/17 02:29:47;;;;;;;19.83;6.78;;;;;;;13.94;100.00;99969.03;4342117;33;35205;-76
2022/06/17 02:32:35;;;;;;;10.60;6.72;;;;;;;14.14;100.00;99953.75;4343261;33;34727;-76
2022/06/17 02:35:27;;;;;;;11.20;7.40;;;;;;;13.83;100.00;99958.62;4342135;33;34700;-76
2022/06/17 02:38:17;;;;;;;10.63;7.68;;;;;;;14.11;100.00;99953.59;4357098;32;34553;-76
2022/06/17 02:41:08;;;;;;;11.88;7.25;;;;;;;13.85;100.00;99962.69;4357045;32;35045;-76
2022/06/17 02:43:59;;;;;;;12.07;7.10;;;;;;;13.85;100.00;99968.19;4356978;32;35110;-76
2022/06/17 02:46:46;;;;;;;11.82;6.50;;;;;;;14.21;100.00;99966.22;4357253;32;34875;-76
2022/06/17 02:49:34;;;;;;;10.27;6.75;;;;;;;13.90;100.00;99964.47;4355222;32;34938;-75
2022/06/17 02:52:37;;;;;;;14.82;6.72;;;;;;;13.86;100.00;99964.31;4355626;32;34148;-77
2022/06/17 02:55:30;;;;;;;13.25;7.78;;;;;;;13.91;100.00;99972.41;4355086;32;34722;-77
2022/06/17 02:58:56;;;;;;;11.32;7.10;;;;;;;13.89;100.00;99971.94;4358127;32;35645;-76
2022/06/17 03:01:43;;;;;;;12.82;7.18;;;;;;;14.28;100.00;99970.06;4335327;32;34370;-77
2022/06/17 03:04:32;;;;;;;9.98;6.40;;;;;;;14.38;100.00;99963.44;4356877;32;34238;-76
2022/06/17 03:07:21;;;;;;;10.52;6.15;;;;;;;14.86;100.00;99962.31;4356859;32;34109;-76
2022/06/17 03:10:20;;;;;;;9.90;5.68;;;;;;;15.16;100.00;99954.81;4346424;32;34562;-76
2022/06/17 03:13:12;;;;;;;10.05;6.20;;;;;;;14.85;100.00;99949.63;4356759;32;34490;-76
2022/06/17 03:16:00;;;;;;;10.80;5.62;;;;;;;14.97;100.00;99951.69;4356677;32;35527;-75
2022/06/17 03:18:48;;;;;;;11.48;6.15;;;;;;;14.35;100.00;99953.06;4357781;32;35061;-76
2022/06/17 03:21:35;;;;;;;10.00;5.68;;;;;;;14.16;100.00;99958.94;4357811;32;34779;-76
2022/06/17 03:24:26;;;;;;;10.40;6.05;;;;;;;14.37;100.00;99956.28;4357254;32;35048;-76
2022/06/17 03:27:27;;;;;;;10.35;6.55;;;;;;;14.14;100.00;99961.19;4356673;32;34205;-75
2022/06/17 03:30:22;;;;;;;14.05;7.20;;;;;;;14.22;100.00;99968.63;4357903;32;33764;-76
2022/06/17 03:33:28;;;;;;;11.82;7.32;;;;;;;14.37;100.00;99968.13;4356826;32;35728;-76
2022/06/17 03:36:21;;;;;;;10.80;6.87;;;;;;;14.28;100.00;99967.31;4360235;32;35976;-75
2022/06/17 03:39:17;;;;;;;11.20;7.32;;;;;;;14.67;100.00;99964.66;4366468;32;34576;-74
2022/06/17 03:42:12;;;;;;;10.38;6.75;;;;;;;14.36;100.00;99974.75;4349855;32;34185;-76
2022/06/17 03:45:05;;;;;;;10.98;6.50;;;;;;;14.53;100.00;99970.37;4372480;32;35657;-75
2022/06/17 03:48:13;;;;;;;11.85;7.57;;;;;;;14.41;100.00;99979.31;4357252;32;34968;-75
2022/06/17 03:51:00;;;;;;;12.18;6.53;;;;;;;14.77;100.00;99980.81;4359934;32;35403;-75
2022/06/17 03:53:48;;;;;;;7.97;5.43;;;;;;;15.06;100.00;99985.59;4357513;32;34747;-75
2022/06/17 03:56:35;;;;;;;9.50;6.20;;;;;;;14.91;100.00;99986.13;4359042;32;34350;-75
2022/06/17 03:59:26;;;;;;;13.40;6.45;;;;;;;14.79;100.00;99989.59;4355964;32;35904;-75
2022/06/17 04:02:15;;;;;;;10.47;6.60;;;;;;;15.04;100.00;99996.94;4360073;32;35293;-75
2022/06/17 04:05:04;;;;;;;11.00;7.07;;;;;;;15.06;100.00;99993.87;4355676;32;33640;-75
2022/06/17 04:07:51;;;;;;;11.20;6.12;;;;;;;14.82;100.00;99995.25;4361735;32;34397;-75
2022/06/17 04:10:38;;;;;;;7.95;5.60;;;;;;;15.07;100.00;99998.22;4366719;32;34934;-74
2022/06/17 04:13:28;;;;;;;6.53;4.53;;;;;;;15.04;100.00;99991.41;4360324;32;34096;-75
2022/06/17 04:16:36;;;;;;;9.35;4.97;;;;;;;15.18;100.00;100007.75;4356362;32;35220;-75
2022/06/17 04:19:25;;;;;;;6.75;4.10;;;;;;;15.23;100.00;100009.53;4358886;32;34309;-76
2022/06/17 04:22:22;;;;;;;7.90;4.87;;;;;;;15.48;100.00;100011.31;4372261;32;35643;-74
2022/06/17 04:25:16;;;;;;;7.72;4.80;;;;;;;15.27;100.00;100018.75;4356458;32;35437;-75
2022/06/17 04:28:07;;;;;;;8.10;5.30;;;;;;;15.57;100.00;100024.25;4357002;32;34747;-75
2022/06/17 04:31:06;;;;;;;9.13;6.55;;;;;;;15.54;100.00;100017.47;4359741;32;34721;-75
2022/06/17 04:33:57;;;;;;;5.72;3.80;;;;;;;15.57;100.00;100015.97;4371587;32;34988;-75
2022/06/17 04:36:46;;;;;;;8.25;3.92;;;;;;;16.33;100.00;100009.34;4364997;32;34588;-75
2022/06/17 04:39:43;;;;;;;8.18;4.10;;;;;;;16.44;100.00;100013.31;4371980;32;33650;-75
2022/06/17 04:42:43;;;;;;;8.35;4.15;;;;;;;16.05;100.00;100018.25;4359159;32;34776;-75
2022/06/17 04:45:31;;;;;;;7.87;4.10;;;;;;;16.31;100.00;100018.00;4358649;32;34661;-75
2022/06/17 04:48:17;;;;;;;7.57;4.62;;;;;;;16.29;100.00;100011.19;4360653;32;33728;-75
2022/06/17 04:51:04;;;;;;;6.57;3.60;;;;;;;16.37;100.00;100010.31;4372342;32;35095;-75
2022/06/17 04:53:52;;;;;;;7.43;3.55;;;;;;;16.41;100.00;100008.47;4372339;32;35194;-75
2022/06/17 04:56:47;;;;;;;5.10;3.20;;;;;;;16.55;100.00;100014.50;4357027;32;35716;-75
2022/06/17 04:59:40;;;;;;;4.40;2.62;;;;;;;16.88;100.00;100013.69;4370659;32;34325;-75
2022/06/17 05:02:30;;;;;;;4.65;2.60;;;;;;;16.85;100.00;100006.06;4360673;32;34792;-75
2022/06/17 05:05:26;;;;;;;4.45;2.20;;;;;;;16.79;100.00;100005.47;4372122;32;35707;-74
2022/06/17 05:08:17;;;;;;;4.35;2.00;;;;;;;17.05;100.00;100004.34;4371603;32;34614;-75
2022/06/17 05:11:37;;;;;;;4.47;2.00;;;;;;;17.46;100.00;100010.78;4360687;32;35371;-73
2022/06/17 05:14:39;;;;;;;5.22;1.60;;;;;;;16.92;100.00;100014.59;4331297;32;35059;-74
2022/06/17 05:17:25;;;;;;;5.20;1.90;;;;;;;17.05;100.00;100005.16;4358659;32;35198;-74
2022/06/17 05:20:17;;;;;;;3.05;1.90;;;;;;;17.16;100.00;100015.75;4359476;32;34998;-74
2022/06/17 05:23:06;;;;;;;4.65;1.90;;;;;;;17.33;100.00;100014.72;4371655;32;34640;-75
2022/06/17 05:25:59;;;;;;;4.22;1.65;;;;;;;17.42;100.00;100007.91;4360410;32;33723;-75
2022/06/17 05:28:46;;;;;;;5.22;1.92;;;;;;;17.59;99.75;100011.56;4363639;32;34317;-74
2022/06/17 05:31:35;;;;;;;5.53;1.90;;;;;;;17.60;97.65;100002.09;4371807;32;33970;-75
2022/06/17 05:34:22;;;;;;;4.22;1.80;;;;;;;17.84;96.00;100013.16;4360495;32;35349;-74
2022/06/17 05:37:08;;;;;;;4.22;2.10;;;;;;;18.23;93.59;100007.94;4371605;32;33628;-74
2022/06/17 05:39:55;;;;;;;2.50;1.75;;;;;;;18.07;94.80;100004.31;4371195;32;34589;-74
2022/06/17 05:42:43;;;;;;;4.65;1.95;;;;;;;18.34;93.93;100008.25;4368984;32;34928;-74
2022/06/17 05:45:31;;;;;;;3.10;1.90;;;;;;;18.72;92.98;100016.00;4370809;32;34412;-74
2022/06/17 05:48:18;;;;;;;8.32;1.98;;;;;;;18.55;90.55;100024.66;4345674;32;34936;-74
2022/06/17 05:51:04;;;;;;;4.65;1.70;;;;;;;18.28;91.39;100029.06;4369311;32;34742;-74
2022/06/17 05:53:51;;;;;;;5.45;1.90;;;;;;;18.47;91.83;100039.50;4368615;32;34620;-74
2022/06/17 05:56:40;;;;;;;6.50;1.52;;;;;;;18.43;90.96;100040.19;4358910;32;35426;-74
2022/06/17 05:59:27;;;;;;;4.37;1.83;;;;;;;18.34;90.97;100047.88;4373167;32;35046;-74
2022/06/17 06:02:14;;;;;;;3.55;2.00;;;;;;;18.54;90.31;100048.03;4361417;32;34543;-73
2022/06/17 06:05:02;;;;;;;5.00;1.60;;;;;;;18.38;89.41;100046.00;4373433;32;35068;-74
2022/06/17 06:07:49;;;;;;;2.78;1.70;;;;;;;18.62;90.39;100055.38;4371182;32;34590;-74
2022/06/17 06:10:36;;;;;;;3.03;1.92;;;;;;;18.62;89.79;100053.41;4373314;32;34926;-74
2022/06/17 06:13:23;;;;;;;3.72;1.62;;;;;;;18.80;89.67;100056.69;4373381;32;34283;-74
2022/06/17 06:16:10;;;;;;;3.47;1.85;;;;;;;19.05;88.49;100056.53;4364832;32;34932;-75
2022/06/17 06:18:58;;;;;;;5.50;1.70;;;;;;;18.94;88.21;100066.56;4361735;32;33311;-74
2022/06/17 06:21:45;;;;;;;4.97;2.00;;;;;;;18.57;90.76;100061.19;4369388;32;34981;-74
2022/06/17 06:24:31;;;;;;;5.50;2.80;;;;;;;18.57;89.65;100067.53;4364751;32;34579;-74
2022/06/17 06:27:19;;;;;;;5.68;2.10;;;;;;;18.50;91.08;100069.31;4359837;32;34960;-74
2022/06/17 06:30:06;;;;;;;5.50;2.05;;;;;;;18.48;91.81;100063.31;4367679;32;35181;-74
2022/06/17 06:32:55;;;;;;;3.92;1.90;;;;;;;18.70;91.47;100078.56;4360931;32;33756;-74
2022/06/17 06:35:42;;;;;;;6.65;2.30;;;;;;;18.92;90.26;100078.00;4361781;32;34126;-74
2022/06/17 06:38:29;;;;;;;5.70;2.92;;;;;;;18.40;94.57;100084.50;4373097;32;34700;-74
2022/06/17 06:41:21;;;;;;;5.57;2.53;;;;;;;18.48;94.88;100086.31;4373122;32;36063;-74
2022/06/17 06:44:07;;;;;;;4.62;2.33;;;;;;;18.47;93.79;100083.88;4360421;32;33912;-74
2022/06/17 06:46:55;;;;;;;4.75;2.22;;;;;;;18.45;93.36;100080.69;4358485;32;34503;-74
2022/06/17 06:49:42;;;;;;;5.45;2.50;;;;;;;18.33;92.23;100087.09;4372459;32;35008;-74
2022/06/17 06:52:29;;;;;;;4.15;2.55;;;;;;;18.73;92.47;100087.00;4371534;32;34627;-74
2022/06/17 06:55:16;;;;;;;5.03;2.30;;;;;;;18.80;91.50;100089.19;4372814;32;33867;-75
2022/06/17 06:58:17;;;;;;;5.75;2.40;;;;;;;18.74;90.55;100088.66;4368985;32;34175;-74
2022/06/17 07:01:05;;;;;;;3.75;1.98;;;;;;;18.90;88.60;100082.31;4360175;32;35991;-74
2022/06/17 07:03:51;;;;;;;4.00;2.10;;;;;;;18.99;89.04;100083.75;4360614;32;34426;-74
2022/06/17 07:06:37;;;;;;;7.22;2.33;;;;;;;19.10;89.11;100078.50;4360747;32;33733;-74
2022/06/17 07:09:25;;;;;;;7.87;2.50;;;;;;;19.38;87.16;100083.12;4358073;32;34364;-74
2022/06/17 07:12:11;;;;;;;9.38;3.25;;;;;;;19.16;87.68;100085.41;4372763;32;38032;-74
2022/06/17 07:14:58;;;;;;;4.40;2.20;;;;;;;19.55;85.41;100089.16;4372890;32;35602;-73
2022/06/17 07:18:06;;;;;;;3.80;2.33;;;;;;;19.43;83.63;100091.19;4372971;32;34211;-74
2022/06/17 07:20:55;;;;;;;4.85;2.22;;;;;;;19.56;84.09;100095.50;4360186;32;35522;-74
2022/06/17 07:23:44;;;;;;;6.47;2.83;;;;;;;19.95;84.38;100093.66;4372863;32;34910;-74
2022/06/17 07:26:30;;;;;;;4.25;2.10;;;;;;;19.75;83.81;100097.53;4360219;32;34434;-75
2022/06/17 07:29:16;;;;;;;3.35;2.08;;;;;;;20.26;82.67;100088.34;4359919;32;35152;-74
2022/06/17 07:32:03;;;;;;;6.12;2.17;;;;;;;20.09;79.83;100084.81;4365895;32;34656;-75
2022/06/17 07:34:50;;;;;;;4.70;2.60;;;;;;;20.21;81.57;100103.38;4372778;32;35100;-74
2022/06/17 07:40:47;;;;;;;5.53;2.47;;;;;;;20.45;80.63;100103.06;4372838;32;35029;-75
2022/06/17 07:43:34;;;;;;;7.03;2.87;;;;;;;20.47;80.16;100099.94;4371709;32;35266;-75
2022/06/17 07:46:22;;;;;;;8.25;2.53;;;;;;;20.65;78.23;100100.31;4372771;32;35056;-75
2022/06/17 07:49:09;;;;;;;5.57;2.72;;;;;;;20.80;78.95;100096.62;4372604;32;35163;-75
2022/06/17 07:51:56;;;;;;;5.90;3.40;;;;;;;21.10;79.04;100102.34;4372217;32;33997;-75
2022/06/17 07:54:42;;;;;;;6.85;2.60;;;;;;;20.55;80.67;100104.50;4372792;32;34119;-75
2022/06/17 07:57:28;;;;;;;5.53;2.60;;;;;;;21.15;80.18;100100.44;4372587;32;34702;-75
2022/06/17 08:00:31;;;;;;;3.60;2.20;;;;;;;21.49;77.93;100102.25;4370793;32;34186;-75
2022/06/17 08:03:18;;;;;;;4.28;2.65;;;;;;;22.20;75.79;100110.91;4371102;32;33682;-75
2022/06/17 08:06:04;;;;;;;5.15;2.75;;;;;;;21.80;76.84;100108.72;4372537;32;34865;-75
2022/06/17 08:08:51;;;;;;;7.43;3.00;;;;;;;21.63;75.45;100100.84;4370276;32;35709;-75
2022/06/17 08:11:37;;;;;;;6.68;2.80;;;;;;;21.64;77.00;100102.47;4372461;32;34569;-75
2022/06/17 08:14:24;;;;;;;4.72;2.45;;;;;;;21.34;75.08;100108.72;4367233;32;35508;-75
2022/06/17 08:17:12;;;;;;;5.87;2.78;;;;;;;22.05;76.05;100105.47;4356652;32;34256;-75
2022/06/17 08:19:58;;;;;;;4.85;3.08;;;;;;;21.91;74.10;100115.22;4359692;32;35006;-75
2022/06/17 08:22:45;;;;;;;3.78;2.65;;;;;;;21.54;74.99;100107.50;4370960;32;34681;-76
2022/06/17 08:25:33;;;;;;;7.12;2.70;;;;;;;22.49;72.60;100105.69;4371999;32;35139;-76
2022/06/17 08:28:19;;;;;;;7.57;3.40;;;;;;;22.22;73.21;100114.09;4372647;32;35525;-75
2022/06/17 08:31:06;;;;;;;6.50;2.75;;;;;;;22.64;70.86;100117.81;4370484;32;34626;-75
2022/06/17 08:33:52;;;;;;;5.50;2.67;;;;;;;22.25;72.09;100111.75;4372508;32;33841;-76
2022/06/17 08:36:39;;;;;;;5.07;2.70;;;;;;;22.99;71.98;100111.03;4359691;32;34154;-76
2022/06/17 08:39:25;;;;;;;4.35;1.90;;;;;;;23.19;71.76;100109.62;4360802;32;34605;-75
2022/06/17 08:42:26;;;;;;;4.05;1.80;;;;;;;23.69;60.10;100104.47;4372338;32;35910;-75
2022/06/17 08:45:28;;;;;;;6.78;2.60;;;;;;;24.09;54.73;100104.75;4356640;32;34125;-76
2022/06/17 08:48:59;;;;;;;2.65;2.00;;;;;;;24.09;51.97;100097.16;4359287;32;34182;-76
2022/06/17 08:51:57;;;;;;;3.08;2.20;;;;;;;24.68;50.86;100106.22;4349499;32;35048;-75
2022/06/17 08:54:53;;;;;;;4.75;2.40;;;;;;;24.57;49.16;100113.00;4372329;32;34956;-76
2022/06/17 08:58:06;;;;;;;5.25;2.55;;;;;;;24.30;55.90;100104.84;4360523;32;34517;-76
2022/06/17 09:01:21;;;;;;;7.12;2.75;;;;;;;24.65;55.67;100112.63;4360115;32;34029;-76
2022/06/17 09:04:34;;;;;;;4.28;2.42;;;;;;;24.74;53.35;100117.06;4360069;32;34237;-76
2022/06/17 09:07:58;;;;;;;2.80;2.50;;;;;;;25.21;53.26;100123.59;4359073;32;36077;-76
2022/06/17 09:11:23;;;;;;;4.07;2.50;;;;;;;25.41;53.63;100119.19;4364893;32;35852;-77
2022/06/17 09:14:45;;;;;;;5.20;2.80;;;;;;;25.15;50.74;100127.97;4360294;32;35071;-76
2022/06/17 09:17:41;;;;;;;6.43;2.90;;;;;;;24.73;56.70;100123.84;4358886;32;35185;-76
2022/06/17 09:20:32;;;;;;;2.78;2.22;;;;;;;25.11;46.68;100136.38;4348893;32;35616;-76
2022/06/17 09:23:23;;;;;;;3.17;2.22;;;;;;;25.40;40.07;100126.00;4359522;32;35369;-77
2022/06/17 09:26:17;;;;;;;5.22;3.35;;;;;;;26.27;41.18;100130.34;4372194;32;34089;-77
2022/06/17 09:29:12;;;;;;;4.30;3.15;;;;;;;25.60;49.90;100134.81;4363243;32;34387;-76
2022/06/17 09:32:26;;;;;;;7.40;3.00;;;;;;;25.33;52.51;100137.22;4357501;32;35902;-77
2022/06/17 09:35:18;;;;;;;4.03;2.97;;;;;;;26.26;51.64;100137.16;4359115;32;35021;-76
2022/06/17 09:38:09;;;;;;;3.92;3.12;;;;;;;26.89;45.66;100138.09;4359302;32;35003;-77
2022/06/17 09:40:59;;;;;;;3.75;2.78;;;;;;;26.60;45.12;100136.66;4360195;32;34231;-77
2022/06/17 09:43:53;;;;;;;4.93;2.67;;;;;;;26.87;42.83;100140.56;4359777;32;34913;-76
2022/06/17 09:46:50;;;;;;;5.07;3.17;;;;;;;26.34;47.11;100133.13;4359043;32;34285;-77
2022/06/17 09:50:00;;;;;;;7.90;3.00;;;;;;;26.26;48.00;100142.78;4359786;32;34547;-76
2022/06/17 09:52:53;;;;;;;5.93;3.10;;;;;;;25.66;48.09;100149.25;4371540;32;33552;-76
2022/06/17 09:55:44;;;;;;;7.18;2.75;;;;;;;24.97;49.54;100159.56;4371720;32;35089;-76
2022/06/17 09:58:43;;;;;;;4.47;2.70;;;;;;;24.96;50.65;100162.75;4358872;32;35118;-75
2022/06/17 10:01:29;;;;;;;5.25;2.60;;;;;;;24.34;50.54;100172.09;4359328;32;34690;-77
2022/06/17 10:04:16;;;;;;;4.60;2.60;;;;;;;25.07;48.92;100172.81;4371482;32;34678;-77
2022/06/17 10:07:16;;;;;;;5.05;2.85;;;;;;;25.15;49.46;100182.06;4355289;32;34457;-76
2022/06/17 10:10:18;;;;;;;7.55;3.47;;;;;;;24.76;50.11;100170.69;4357925;32;34508;-76
2022/06/17 10:13:13;;;;;;;4.93;2.70;;;;;;;25.40;48.59;100184.13;4371277;32;34125;-77
2022/06/17 10:19:50;;;;;;;4.22;2.83;;;;;;;25.31;46.90;100181.69;4358553;32;34983;-77
2022/06/17 10:22:57;;;;;;;5.28;2.62;;;;;;;25.00;48.36;100186.78;4371201;32;34567;-77
2022/06/17 10:25:58;;;;;;;5.35;3.10;;;;;;;25.50;49.61;100186.13;4357866;32;34179;-78
2022/06/17 10:29:07;;;;;;;8.10;3.92;;;;;;;25.67;48.17;100182.53;4371027;32;34413;-77
2022/06/17 10:31:54;;;;;;;4.68;3.15;;;;;;;26.11;49.45;100184.13;4358309;32;34700;-77
2022/06/17 10:34:52;;;;;;;6.60;3.25;;;;;;;25.94;47.60;100180.13;4364661;32;34498;-77
2022/06/17 10:37:38;;;;;;;4.85;3.20;;;;;;;26.21;48.15;100179.69;4346100;32;34085;-77
2022/06/17 10:40:41;;;;;;;6.00;3.20;;;;;;;26.36;43.93;100174.84;4358253;32;34789;-77
2022/06/17 10:43:32;;;;;;;9.75;3.62;;;;;;;26.12;43.10;100184.94;4353830;32;34899;-77
2022/06/17 10:46:23;;;;;;;6.47;3.00;;;;;;;26.57;43.11;100174.81;4347932;32;34565;-77
2022/06/17 10:49:21;;;;;;;6.93;3.60;;;;;;;26.53;43.87;100178.84;4346942;32;34086;-77
2022/06/17 10:52:18;;;;;;;6.97;3.62;;;;;;;26.66;42.16;100182.81;4355222;32;34779;-78
2022/06/17 10:55:05;;;;;;;4.28;2.83;;;;;;;27.27;41.75;100188.16;4342367;32;35251;-77
2022/06/17 10:58:18;;;;;;;8.57;3.87;;;;;;;26.94;40.27;100181.09;4332221;32;35182;-77
2022/06/17 11:01:07;;;;;;;6.53;3.58;;;;;;;26.62;40.99;100176.41;4357545;32;33783;-77
2022/06/17 11:04:14;;;;;;;3.58;3.03;;;;;;;26.70;42.30;100172.37;4357009;32;35302;-77
2022/06/17 11:07:05;;;;;;;6.55;3.40;;;;;;;26.36;36.92;100180.47;4351455;32;34934;-78
2022/06/17 11:09:55;;;;;;;7.07;3.42;;;;;;;26.46;36.88;100186.03;4357561;32;35068;-78
2022/06/17 11:12:43;;;;;;;6.25;3.33;;;;;;;27.01;39.34;100187.47;4346603;32;34645;-77
2022/06/17 11:15:33;;;;;;;4.47;3.37;;;;;;;27.03;39.61;100189.87;4346532;32;34655;-78
2022/06/17 11:18:26;;;;;;;4.68;3.20;;;;;;;27.15;39.46;100180.94;4346404;32;36076;-78
2022/06/17 11:21:22;;;;;;;6.07;3.17;;;;;;;26.85;38.79;100192.78;4345783;32;34208;-78
2022/06/17 11:24:25;;;;;;;9.27;3.05;;;;;;;26.64;38.81;100190.81;4345312;32;34117;-77
2022/06/17 11:27:36;;;;;;;4.85;3.30;;;;;;;26.14;36.08;100190.94;4357101;32;35548;-78
2022/06/17 11:30:24;;;;;;;;;;;;;;;26.00;37.71;100189.75;4350936;32;35023;-78
2022/06/17 11:33:52;;;;;;;5.68;3.40;;;;;;;26.30;39.80;100188.53;4356034;32;35330;-78
2022/06/17 11:37:07;;;;;;;8.23;3.97;;;;;;;25.79;41.37;100192.56;4347687;32;32853;-78
2022/06/17 11:40:12;;;;;;;5.10;3.70;;;;;;;26.24;42.18;100184.50;4348696;32;34683;-77
2022/06/17 11:43:04;;;;;;;5.35;3.37;;;;;;;25.87;43.51;100188.59;4356375;32;34943;-77
2022/06/17 11:45:51;;;;;;;5.18;3.67;;;;;;;25.41;42.74;100194.91;4352669;32;35345;-77
2022/06/17 11:48:45;;;;;;;4.07;3.67;;;;;;;25.99;42.05;100185.34;4349037;32;34084;-78
2022/06/17 11:51:55;;;;;;;5.80;3.60;;;;;;;25.04;45.32;100187.59;4345646;32;34658;-77
2022/06/17 11:54:50;;;;;;;8.27;3.60;;;;;;;25.26;44.31;100187.69;4357603;32;34950;-77
2022/06/17 11:57:39;;;;;;;5.72;3.40;;;;;;;25.46;44.10;100185.31;4352594;32;34153;-77
2022/06/17 12:00:46;;;;;;;7.30;4.18;;;;;;;25.12;43.03;100183.63;4350158;32;33742;-78
2022/06/17 12:03:32;;;;;;;5.25;3.80;;;;;;;25.90;40.97;100181.34;4352579;32;35307;-77
2022/06/17 12:06:27;;;;;;;6.55;3.65;;;;;;;25.80;39.78;100168.91;4355334;32;34537;-77
2022/06/17 12:09:25;;;;;;;8.25;4.15;;;;;;;25.53;39.84;100186.13;4357617;32;34677;-77
2022/06/17 12:12:14;;;;;;;5.60;3.17;;;;;;;25.96;38.93;100162.91;4357428;32;34255;-78
2022/06/17 12:15:08;;;;;;;6.85;3.62;;;;;;;26.11;40.40;100150.44;4343052;32;34293;-78
2022/06/17 12:17:56;;;;;;;8.75;3.85;;;;;;;25.49;41.70;100162.06;4357095;32;34726;-76
2022/06/17 12:21:05;;;;;;;4.80;3.08;;;;;;;25.10;42.76;100151.56;4345813;32;35093;-78
2022/06/17 12:24:09;;;;;;;6.80;3.30;;;;;;;25.89;40.14;100152.47;4347013;32;33632;-78
2022/06/17 12:27:23;;;;;;;4.72;2.97;;;;;;;25.80;40.38;100152.06;4351133;32;33630;-78
2022/06/17 12:30:58;;;;;;;5.97;3.00;;;;;;;25.75;39.82;100150.44;4357019;32;34979;-78
2022/06/17 12:34:23;;;;;;;5.12;3.00;;;;;;;25.72;38.41;100144.84;4345411;32;34560;-78
2022/06/17 12:37:29;;;;;;;4.25;2.90;;;;;;;25.87;38.85;100148.47;4364706;32;34973;-78
2022/06/17 12:40:23;;;;;;;6.95;2.78;;;;;;;25.86;38.02;100164.50;4360072;32;34410;-78
2022/06/17 12:43:39;;;;;;;7.15;2.97;;;;;;;25.24;40.41;100145.22;4360221;32;34573;-77
2022/06/17 12:46:51;;;;;;;3.70;2.80;;;;;;;25.73;37.60;100152.87;4360138;32;34208;-77
2022/06/17 12:53:14;;;;;;;5.68;2.60;;;;;;;25.90;36.44;100154.09;4364962;32;35324;-78
2022/06/17 12:56:14;;;;;;;6.00;2.85;;;;;;;25.79;36.18;100142.03;4361740;32;34617;-78
2022/06/17 12:59:16;;;;;;;3.37;2.60;;;;;;;26.09;37.16;100116.34;4347992;32;34190;-78
2022/06/17 13:02:05;;;;;;;5.12;2.80;;;;;;;25.91;38.16;100127.59;4370552;32;33858;-78
2022/06/17 13:05:10;;;;;;;4.32;2.62;;;;;;;26.21;37.58;100121.53;4370921;32;34745;-78
2022/06/17 13:08:18;;;;;;;4.35;3.10;;;;;;;26.73;37.61;100122.97;4359396;32;36011;-77
2022/06/17 13:11:12;;;;;;;5.30;3.17;;;;;;;25.61;39.23;100135.63;4371838;32;35476;-77
2022/06/17 13:14:09;;;;;;;4.12;3.03;;;;;;;25.83;38.36;100131.63;4372084;32;34105;-77
2022/06/17 13:17:07;;;;;;;11.02;3.00;;;;;;;25.42;39.78;100128.44;4356070;32;35277;-78
2022/06/17 13:20:04;;;;;;;5.20;3.17;;;;;;;26.32;39.63;100131.91;4359075;32;34513;-77
2022/06/17 13:22:57;;;;;;;4.50;2.87;;;;;;;26.42;39.41;100129.06;4356438;32;35356;-78
2022/06/17 13:25:47;;;;;;;5.47;2.70;;;;;;;25.88;39.88;100130.44;4359798;32;34283;-79
2022/06/17 13:28:37;;;;;;;3.83;2.58;;;;;;;25.77;39.05;100141.63;4371826;32;35714;-78
2022/06/17 13:31:37;;;;;;;6.93;2.42;;;;;;;25.88;35.98;100134.03;4359306;32;35026;-77
2022/06/17 13:34:23;;;;;;;4.95;2.25;;;;;;;26.20;34.00;100128.34;4354146;32;173795;-77
2022/06/17 13:37:40;;;;;;;4.30;2.17;;;;;;;26.21;34.30;100129.97;4370722;32;34725;-78
2022/06/17 13:40:40;;;;;;;4.65;2.35;;;;;;;26.19;34.29;100125.94;4356843;32;34345;-77
2022/06/17 13:43:39;;;;;;;3.90;2.20;;;;;;;25.83;36.46;100128.81;4358469;32;34552;-78